sensor_id;sensor_type;location;lat;lon;timestamp;P1;durP1;ratioP1;P2;durP2;ratioP2
49440;SDS011;35317;51.978;6.296;2023-07-31T00:00:43;6.70;;;6.20;;
49440;SDS011;35317;51.978;6.296;2023-07-31T00:05:44;6.68;;;6.18;;
49440;SDS011;35317;51.978;6.296;2023-07-31T00:10:45;7.18;;;6.68;;
49440;SDS011;35317;51.978;6.296;2023-07-31T00:15:46;7.15;;;6.55;;
49440;SDS011;35317;51.978;6.296;2023-07-31T00:20:46;6.75;;;6.25;;
49440;SDS011;35317;51.978;6.296;2023-07-31T00:25:47;6.47;;;5.97;;
49440;SDS011;35317;51.978;6.296;2023-07-31T00:30:48;6.47;;;5.97;;
49440;SDS011;35317;51.978;6.296;2023-07-31T00:35:49;6.07;;;5.68;;
49440;SDS011;35317;51.978;6.296;2023-07-31T00:40:50;6.30;;;5.90;;
49440;SDS011;35317;51.978;6.296;2023-07-31T00:45:51;6.68;;;6.18;;
49440;SDS011;35317;51.978;6.296;2023-07-31T00:50:52;6.22;;;5.82;;
49440;SDS011;35317;51.978;6.296;2023-07-31T00:55:53;6.68;;;6.18;;
49440;SDS011;35317;51.978;6.296;2023-07-31T01:00:54;5.97;;;5.60;;
49440;SDS011;35317;51.978;6.296;2023-07-31T01:11:25;9.77;;;7.85;;
49440;SDS011;35317;51.978;6.296;2023-07-31T01:16:33;14.45;;;9.20;;
49440;SDS011;35317;51.978;6.296;2023-07-31T01:27:21;21.25;;;11.07;;
49440;SDS011;35317;51.978;6.296;2023-07-31T01:32:29;18.52;;;12.00;;
49440;SDS011;35317;51.978;6.296;2023-07-31T01:37:30;28.02;;;13.85;;
49440;SDS011;35317;51.978;6.296;2023-07-31T01:42:31;23.23;;;14.27;;
49440;SDS011;35317;51.978;6.296;2023-07-31T01:47:32;32.13;;;14.48;;
49440;SDS011;35317;51.978;6.296;2023-07-31T01:52:32;27.23;;;14.82;;
49440;SDS011;35317;51.978;6.296;2023-07-31T01:57:33;25.95;;;14.55;;
49440;SDS011;35317;51.978;6.296;2023-07-31T02:02:34;26.77;;;15.05;;
49440;SDS011;35317;51.978;6.296;2023-07-31T02:07:35;29.40;;;13.88;;
49440;SDS011;35317;51.978;6.296;2023-07-31T02:12:35;26.35;;;14.52;;
49440;SDS011;35317;51.978;6.296;2023-07-31T02:17:36;28.10;;;13.75;;
49440;SDS011;35317;51.978;6.296;2023-07-31T02:22:37;30.90;;;13.52;;
49440;SDS011;35317;51.978;6.296;2023-07-31T02:27:38;23.65;;;12.77;;
49440;SDS011;35317;51.978;6.296;2023-07-31T02:32:38;29.58;;;13.98;;
49440;SDS011;35317;51.978;6.296;2023-07-31T02:37:39;19.67;;;11.70;;
49440;SDS011;35317;51.978;6.296;2023-07-31T02:42:40;24.50;;;17.15;;
49440;SDS011;35317;51.978;6.296;2023-07-31T02:47:41;25.27;;;12.60;;
49440;SDS011;35317;51.978;6.296;2023-07-31T02:52:42;32.28;;;13.68;;
49440;SDS011;35317;51.978;6.296;2023-07-31T02:57:42;25.83;;;17.88;;
49440;SDS011;35317;51.978;6.296;2023-07-31T03:02:43;22.42;;;12.27;;
49440;SDS011;35317;51.978;6.296;2023-07-31T03:07:44;21.70;;;11.95;;
49440;SDS011;35317;51.978;6.296;2023-07-31T03:12:47;19.83;;;11.30;;
49440;SDS011;35317;51.978;6.296;2023-07-31T03:17:48;22.00;;;11.60;;
49440;SDS011;35317;51.978;6.296;2023-07-31T03:22:49;21.13;;;11.93;;
49440;SDS011;35317;51.978;6.296;2023-07-31T03:27:50;25.10;;;13.35;;
49440;SDS011;35317;51.978;6.296;2023-07-31T03:32:50;19.95;;;11.07;;
49440;SDS011;35317;51.978;6.296;2023-07-31T03:37:52;18.08;;;10.98;;
49440;SDS011;35317;51.978;6.296;2023-07-31T03:42:53;21.45;;;11.27;;
49440;SDS011;35317;51.978;6.296;2023-07-31T03:47:54;20.73;;;10.82;;
49440;SDS011;35317;51.978;6.296;2023-07-31T03:52:55;21.75;;;10.65;;
49440;SDS011;35317;51.978;6.296;2023-07-31T03:57:55;22.02;;;14.05;;
49440;SDS011;35317;51.978;6.296;2023-07-31T04:02:56;16.60;;;9.73;;
49440;SDS011;35317;51.978;6.296;2023-07-31T04:07:57;18.77;;;9.73;;
49440;SDS011;35317;51.978;6.296;2023-07-31T04:12:58;16.52;;;9.63;;
49440;SDS011;35317;51.978;6.296;2023-07-31T04:18:00;18.67;;;10.18;;
49440;SDS011;35317;51.978;6.296;2023-07-31T04:23:01;22.60;;;9.52;;
49440;SDS011;35317;51.978;6.296;2023-07-31T04:28:01;15.10;;;9.93;;
49440;SDS011;35317;51.978;6.296;2023-07-31T04:33:02;18.30;;;10.00;;
49440;SDS011;35317;51.978;6.296;2023-07-31T04:38:03;16.85;;;9.20;;
49440;SDS011;35317;51.978;6.296;2023-07-31T04:43:04;22.75;;;10.40;;
49440;SDS011;35317;51.978;6.296;2023-07-31T04:48:05;17.40;;;9.35;;
49440;SDS011;35317;51.978;6.296;2023-07-31T04:53:05;18.90;;;9.75;;
49440;SDS011;35317;51.978;6.296;2023-07-31T04:58:07;21.95;;;10.43;;
49440;SDS011;35317;51.978;6.296;2023-07-31T05:03:08;13.80;;;9.80;;
49440;SDS011;35317;51.978;6.296;2023-07-31T05:08:10;17.92;;;9.52;;
49440;SDS011;35317;51.978;6.296;2023-07-31T05:13:11;18.17;;;9.27;;
49440;SDS011;35317;51.978;6.296;2023-07-31T05:18:12;14.88;;;9.02;;
49440;SDS011;35317;51.978;6.296;2023-07-31T05:23:13;15.52;;;9.55;;
49440;SDS011;35317;51.978;6.296;2023-07-31T05:28:14;14.40;;;8.73;;
49440;SDS011;35317;51.978;6.296;2023-07-31T05:33:15;14.65;;;8.98;;
49440;SDS011;35317;51.978;6.296;2023-07-31T05:38:16;14.27;;;8.90;;
49440;SDS011;35317;51.978;6.296;2023-07-31T05:43:17;15.75;;;9.15;;
49440;SDS011;35317;51.978;6.296;2023-07-31T05:48:17;14.18;;;11.80;;
49440;SDS011;35317;51.978;6.296;2023-07-31T05:53:18;18.38;;;9.13;;
49440;SDS011;35317;51.978;6.296;2023-07-31T05:58:19;18.52;;;9.30;;
49440;SDS011;35317;51.978;6.296;2023-07-31T06:03:20;12.95;;;8.43;;
49440;SDS011;35317;51.978;6.296;2023-07-31T06:08:21;12.07;;;8.43;;
49440;SDS011;35317;51.978;6.296;2023-07-31T06:13:21;15.68;;;9.05;;
49440;SDS011;35317;51.978;6.296;2023-07-31T06:18:22;16.38;;;8.80;;
49440;SDS011;35317;51.978;6.296;2023-07-31T06:23:23;17.27;;;8.60;;
49440;SDS011;35317;51.978;6.296;2023-07-31T06:28:27;13.93;;;8.68;;
49440;SDS011;35317;51.978;6.296;2023-07-31T06:33:31;14.82;;;13.05;;
49440;SDS011;35317;51.978;6.296;2023-07-31T06:38:32;13.82;;;8.35;;
49440;SDS011;35317;51.978;6.296;2023-07-31T06:43:33;13.27;;;8.77;;
49440;SDS011;35317;51.978;6.296;2023-07-31T06:48:34;12.35;;;7.78;;
49440;SDS011;35317;51.978;6.296;2023-07-31T06:53:34;11.00;;;8.02;;
49440;SDS011;35317;51.978;6.296;2023-07-31T06:58:35;9.48;;;7.60;;
49440;SDS011;35317;51.978;6.296;2023-07-31T07:03:36;8.07;;;7.25;;
49440;SDS011;35317;51.978;6.296;2023-07-31T07:08:37;8.40;;;7.22;;
49440;SDS011;35317;51.978;6.296;2023-07-31T07:13:38;8.80;;;7.63;;
49440;SDS011;35317;51.978;6.296;2023-07-31T07:18:39;9.05;;;6.85;;
49440;SDS011;35317;51.978;6.296;2023-07-31T07:23:51;11.25;;;7.03;;
49440;SDS011;35317;51.978;6.296;2023-07-31T07:28:52;6.53;;;6.13;;
49440;SDS011;35317;51.978;6.296;2023-07-31T07:33:53;6.80;;;6.20;;
49440;SDS011;35317;51.978;6.296;2023-07-31T07:38:54;6.38;;;5.88;;
49440;SDS011;35317;51.978;6.296;2023-07-31T07:43:55;6.18;;;5.85;;
49440;SDS011;35317;51.978;6.296;2023-07-31T07:48:55;6.03;;;5.53;;
49440;SDS011;35317;51.978;6.296;2023-07-31T07:53:56;5.75;;;5.35;;
49440;SDS011;35317;51.978;6.296;2023-07-31T07:58:58;6.82;;;6.30;;
49440;SDS011;35317;51.978;6.296;2023-07-31T08:03:59;5.57;;;5.20;;
49440;SDS011;35317;51.978;6.296;2023-07-31T08:09:00;6.47;;;5.40;;
49440;SDS011;35317;51.978;6.296;2023-07-31T08:14:06;6.03;;;5.55;;
49440;SDS011;35317;51.978;6.296;2023-07-31T08:19:06;7.50;;;6.90;;
49440;SDS011;35317;51.978;6.296;2023-07-31T08:24:07;6.07;;;5.68;;
49440;SDS011;35317;51.978;6.296;2023-07-31T08:29:08;7.60;;;7.03;;
49440;SDS011;35317;51.978;6.296;2023-07-31T08:34:09;6.80;;;6.40;;
49440;SDS011;35317;51.978;6.296;2023-07-31T08:39:10;6.20;;;5.70;;
49440;SDS011;35317;51.978;6.296;2023-07-31T08:44:10;8.18;;;7.55;;
49440;SDS011;35317;51.978;6.296;2023-07-31T08:49:12;7.40;;;6.70;;
49440;SDS011;35317;51.978;6.296;2023-07-31T08:54:14;7.55;;;7.03;;
49440;SDS011;35317;51.978;6.296;2023-07-31T08:59:14;7.30;;;6.80;;
49440;SDS011;35317;51.978;6.296;2023-07-31T09:04:17;7.10;;;6.60;;
49440;SDS011;35317;51.978;6.296;2023-07-31T09:09:21;7.53;;;7.03;;
49440;SDS011;35317;51.978;6.296;2023-07-31T09:14:22;16.73;;;15.65;;
49440;SDS011;35317;51.978;6.296;2023-07-31T09:19:32;6.50;;;6.00;;
49440;SDS011;35317;51.978;6.296;2023-07-31T09:24:34;18.95;;;17.75;;
49440;SDS011;35317;51.978;6.296;2023-07-31T09:29:35;8.27;;;7.68;;
49440;SDS011;35317;51.978;6.296;2023-07-31T09:34:37;7.65;;;7.00;;
49440;SDS011;35317;51.978;6.296;2023-07-31T09:39:46;6.72;;;6.22;;
49440;SDS011;35317;51.978;6.296;2023-07-31T09:44:48;6.30;;;5.90;;
49440;SDS011;35317;51.978;6.296;2023-07-31T09:49:48;7.03;;;6.38;;
49440;SDS011;35317;51.978;6.296;2023-07-31T09:54:49;6.78;;;6.18;;
49440;SDS011;35317;51.978;6.296;2023-07-31T10:12:25;8.25;;;7.55;;
49440;SDS011;35317;51.978;6.296;2023-07-31T10:17:30;9.02;;;7.78;;
49440;SDS011;35317;51.978;6.296;2023-07-31T10:22:33;9.23;;;8.30;;
49440;SDS011;35317;51.978;6.296;2023-07-31T10:27:49;9.00;;;8.20;;
49440;SDS011;35317;51.978;6.296;2023-07-31T10:32:50;10.07;;;8.75;;
49440;SDS011;35317;51.978;6.296;2023-07-31T10:37:53;10.00;;;9.00;;
49440;SDS011;35317;51.978;6.296;2023-07-31T10:42:55;10.15;;;9.25;;
49440;SDS011;35317;51.978;6.296;2023-07-31T10:48:00;11.90;;;10.00;;
49440;SDS011;35317;51.978;6.296;2023-07-31T10:53:28;12.55;;;10.18;;
49440;SDS011;35317;51.978;6.296;2023-07-31T10:58:32;10.68;;;9.68;;
49440;SDS011;35317;51.978;6.296;2023-07-31T11:03:40;13.07;;;10.25;;
49440;SDS011;35317;51.978;6.296;2023-07-31T11:08:44;13.60;;;12.27;;
49440;SDS011;35317;51.978;6.296;2023-07-31T11:13:51;15.48;;;9.70;;
49440;SDS011;35317;51.978;6.296;2023-07-31T11:19:02;11.27;;;9.65;;
49440;SDS011;35317;51.978;6.296;2023-07-31T11:24:09;12.88;;;9.85;;
49440;SDS011;35317;51.978;6.296;2023-07-31T11:29:13;10.82;;;9.73;;
49440;SDS011;35317;51.978;6.296;2023-07-31T11:34:13;12.32;;;10.98;;
49440;SDS011;35317;51.978;6.296;2023-07-31T11:39:15;11.55;;;10.05;;
49440;SDS011;35317;51.978;6.296;2023-07-31T11:44:15;12.07;;;10.43;;
49440;SDS011;35317;51.978;6.296;2023-07-31T11:49:16;9.65;;;8.68;;
49440;SDS011;35317;51.978;6.296;2023-07-31T11:54:17;10.88;;;9.80;;
49440;SDS011;35317;51.978;6.296;2023-07-31T11:59:18;9.90;;;8.93;;
49440;SDS011;35317;51.978;6.296;2023-07-31T12:04:23;10.38;;;9.27;;
49440;SDS011;35317;51.978;6.296;2023-07-31T12:09:25;14.05;;;9.02;;
49440;SDS011;35317;51.978;6.296;2023-07-31T12:14:27;10.05;;;9.07;;
49440;SDS011;35317;51.978;6.296;2023-07-31T12:19:31;11.63;;;10.48;;
49440;SDS011;35317;51.978;6.296;2023-07-31T12:24:32;10.63;;;9.07;;
49440;SDS011;35317;51.978;6.296;2023-07-31T12:29:34;10.82;;;9.43;;
49440;SDS011;35317;51.978;6.296;2023-07-31T12:34:42;11.13;;;8.63;;
49440;SDS011;35317;51.978;6.296;2023-07-31T12:39:45;11.90;;;8.45;;
49440;SDS011;35317;51.978;6.296;2023-07-31T12:44:46;9.52;;;8.45;;
49440;SDS011;35317;51.978;6.296;2023-07-31T12:49:47;9.52;;;8.18;;
49440;SDS011;35317;51.978;6.296;2023-07-31T12:54:51;10.15;;;9.15;;
49440;SDS011;35317;51.978;6.296;2023-07-31T12:59:54;10.23;;;9.32;;
49440;SDS011;35317;51.978;6.296;2023-07-31T13:05:00;9.95;;;8.95;;
49440;SDS011;35317;51.978;6.296;2023-07-31T13:10:04;10.30;;;8.85;;
49440;SDS011;35317;51.978;6.296;2023-07-31T13:15:06;8.98;;;8.18;;
49440;SDS011;35317;51.978;6.296;2023-07-31T13:20:08;9.35;;;8.45;;
49440;SDS011;35317;51.978;6.296;2023-07-31T13:25:09;8.95;;;8.15;;
49440;SDS011;35317;51.978;6.296;2023-07-31T13:30:10;12.02;;;8.43;;
49440;SDS011;35317;51.978;6.296;2023-07-31T13:35:11;9.00;;;8.00;;
49440;SDS011;35317;51.978;6.296;2023-07-31T13:45:38;8.68;;;7.78;;
49440;SDS011;35317;51.978;6.296;2023-07-31T13:50:40;8.73;;;8.02;;
49440;SDS011;35317;51.978;6.296;2023-07-31T13:55:41;7.95;;;7.25;;
49440;SDS011;35317;51.978;6.296;2023-07-31T14:00:47;8.35;;;7.55;;
49440;SDS011;35317;51.978;6.296;2023-07-31T14:05:48;8.05;;;7.22;;
49440;SDS011;35317;51.978;6.296;2023-07-31T14:10:49;10.50;;;9.35;;
49440;SDS011;35317;51.978;6.296;2023-07-31T14:15:58;7.97;;;7.22;;
49440;SDS011;35317;51.978;6.296;2023-07-31T14:21:05;11.20;;;8.40;;
49440;SDS011;35317;51.978;6.296;2023-07-31T14:26:05;10.05;;;7.78;;
49440;SDS011;35317;51.978;6.296;2023-07-31T14:31:07;9.02;;;8.13;;
49440;SDS011;35317;51.978;6.296;2023-07-31T14:36:07;9.70;;;8.68;;
49440;SDS011;35317;51.978;6.296;2023-07-31T14:41:08;16.85;;;15.45;;
49440;SDS011;35317;51.978;6.296;2023-07-31T18:33:50;5.65;;;5.25;;
49440;SDS011;35317;51.978;6.296;2023-07-31T18:38:51;5.40;;;5.07;;
49440;SDS011;35317;51.978;6.296;2023-07-31T18:43:52;6.18;;;5.68;;
49440;SDS011;35317;51.978;6.296;2023-07-31T18:48:53;5.68;;;5.18;;
49440;SDS011;35317;51.978;6.296;2023-07-31T18:53:53;5.38;;;5.07;;
49440;SDS011;35317;51.978;6.296;2023-07-31T18:58:54;5.55;;;5.22;;
49440;SDS011;35317;51.978;6.296;2023-07-31T19:03:55;5.22;;;4.93;;
49440;SDS011;35317;51.978;6.296;2023-07-31T19:08:58;5.80;;;5.30;;
49440;SDS011;35317;51.978;6.296;2023-07-31T19:13:59;5.70;;;5.30;;
49440;SDS011;35317;51.978;6.296;2023-07-31T19:19:00;5.50;;;5.20;;
49440;SDS011;35317;51.978;6.296;2023-07-31T19:24:00;5.65;;;5.35;;
49440;SDS011;35317;51.978;6.296;2023-07-31T19:29:01;5.70;;;5.40;;
49440;SDS011;35317;51.978;6.296;2023-07-31T19:34:02;6.03;;;5.72;;
49440;SDS011;35317;51.978;6.296;2023-07-31T19:39:03;11.82;;;11.05;;
49440;SDS011;35317;51.978;6.296;2023-07-31T19:44:04;6.05;;;5.40;;
49440;SDS011;35317;51.978;6.296;2023-07-31T19:49:05;6.22;;;5.82;;
49440;SDS011;35317;51.978;6.296;2023-07-31T19:54:05;6.30;;;5.90;;
49440;SDS011;35317;51.978;6.296;2023-07-31T19:59:06;6.28;;;5.88;;
49440;SDS011;35317;51.978;6.296;2023-07-31T20:04:07;6.47;;;6.03;;
49440;SDS011;35317;51.978;6.296;2023-07-31T20:09:08;6.43;;;5.93;;
49440;SDS011;35317;51.978;6.296;2023-07-31T20:14:09;6.60;;;6.10;;
49440;SDS011;35317;51.978;6.296;2023-07-31T20:19:10;6.68;;;6.18;;
49440;SDS011;35317;51.978;6.296;2023-07-31T20:24:11;6.80;;;6.30;;
49440;SDS011;35317;51.978;6.296;2023-07-31T20:29:12;6.45;;;6.05;;
49440;SDS011;35317;51.978;6.296;2023-07-31T20:34:12;6.90;;;6.30;;
49440;SDS011;35317;51.978;6.296;2023-07-31T20:39:13;6.80;;;6.30;;
49440;SDS011;35317;51.978;6.296;2023-07-31T20:44:17;6.88;;;6.25;;
49440;SDS011;35317;51.978;6.296;2023-07-31T20:49:19;8.25;;;6.88;;
49440;SDS011;35317;51.978;6.296;2023-07-31T20:54:20;6.95;;;6.35;;
49440;SDS011;35317;51.978;6.296;2023-07-31T20:59:21;6.50;;;6.00;;
49440;SDS011;35317;51.978;6.296;2023-07-31T21:04:22;6.72;;;6.22;;
49440;SDS011;35317;51.978;6.296;2023-07-31T21:09:22;7.10;;;6.40;;
49440;SDS011;35317;51.978;6.296;2023-07-31T21:14:23;6.40;;;6.00;;
49440;SDS011;35317;51.978;6.296;2023-07-31T21:19:24;6.70;;;6.20;;
49440;SDS011;35317;51.978;6.296;2023-07-31T21:24:25;6.68;;;6.10;;
49440;SDS011;35317;51.978;6.296;2023-07-31T21:29:25;7.10;;;6.60;;
49440;SDS011;35317;51.978;6.296;2023-07-31T21:34:27;7.40;;;6.70;;
49440;SDS011;35317;51.978;6.296;2023-07-31T21:39:28;7.18;;;6.68;;
49440;SDS011;35317;51.978;6.296;2023-07-31T21:44:29;7.75;;;7.15;;
49440;SDS011;35317;51.978;6.296;2023-07-31T21:49:29;7.68;;;7.07;;
49440;SDS011;35317;51.978;6.296;2023-07-31T21:54:30;8.18;;;7.47;;
49440;SDS011;35317;51.978;6.296;2023-07-31T21:59:31;8.00;;;7.15;;
49440;SDS011;35317;51.978;6.296;2023-07-31T22:04:32;8.35;;;7.53;;
49440;SDS011;35317;51.978;6.296;2023-07-31T22:09:33;8.10;;;7.30;;
49440;SDS011;35317;51.978;6.296;2023-07-31T22:14:33;8.45;;;7.65;;
49440;SDS011;35317;51.978;6.296;2023-07-31T22:19:34;7.57;;;6.97;;
49440;SDS011;35317;51.978;6.296;2023-07-31T22:24:35;8.18;;;7.13;;
49440;SDS011;35317;51.978;6.296;2023-07-31T22:29:36;7.97;;;7.18;;
49440;SDS011;35317;51.978;6.296;2023-07-31T22:34:37;7.70;;;7.10;;
49440;SDS011;35317;51.978;6.296;2023-07-31T22:39:41;7.70;;;7.10;;
49440;SDS011;35317;51.978;6.296;2023-07-31T22:44:41;8.57;;;7.25;;
49440;SDS011;35317;51.978;6.296;2023-07-31T22:49:42;8.20;;;7.50;;
49440;SDS011;35317;51.978;6.296;2023-07-31T22:54:43;8.50;;;7.72;;
49440;SDS011;35317;51.978;6.296;2023-07-31T22:59:44;7.70;;;7.10;;
49440;SDS011;35317;51.978;6.296;2023-07-31T23:04:44;8.68;;;7.88;;
49440;SDS011;35317;51.978;6.296;2023-07-31T23:09:45;7.90;;;7.25;;
49440;SDS011;35317;51.978;6.296;2023-07-31T23:14:46;8.25;;;7.43;;
49440;SDS011;35317;51.978;6.296;2023-07-31T23:19:47;8.20;;;7.60;;
49440;SDS011;35317;51.978;6.296;2023-07-31T23:24:47;9.18;;;8.38;;
49440;SDS011;35317;51.978;6.296;2023-07-31T23:29:48;10.18;;;8.10;;
49440;SDS011;35317;51.978;6.296;2023-07-31T23:34:49;8.77;;;7.88;;
49440;SDS011;35317;51.978;6.296;2023-07-31T23:39:50;8.90;;;8.10;;
49440;SDS011;35317;51.978;6.296;2023-07-31T23:44:50;9.27;;;8.30;;
49440;SDS011;35317;51.978;6.296;2023-07-31T23:49:51;11.23;;;8.95;;
49440;SDS011;35317;51.978;6.296;2023-07-31T23:54:52;9.70;;;8.57;;
49440;SDS011;35317;51.978;6.296;2023-07-31T23:59:53;13.00;;;9.15;;
